createdAt,value
2023-04-02T00:00:19.680Z,100.00
2023-04-02T00:02:35.160Z,100.00
2023-04-02T00:04:38.681Z,100.00
2023-04-02T00:06:45.545Z,100.00
2023-04-02T00:08:48.993Z,100.00
2023-04-02T00:10:55.724Z,100.00
2023-04-02T00:13:04.630Z,100.00
2023-04-02T00:15:14.116Z,100.00
2023-04-02T00:17:17.634Z,100.00
2023-04-02T00:19:26.653Z,100.00
2023-04-02T00:21:32.208Z,100.00
2023-04-02T00:23:40.000Z,100.00
2023-04-02T00:25:45.706Z,100.00
2023-04-02T00:27:51.243Z,99.94
2023-04-02T00:29:56.346Z,99.60
2023-04-02T00:32:01.024Z,99.38
2023-04-02T00:34:05.698Z,98.92
2023-04-02T00:36:10.076Z,98.84
2023-04-02T00:38:22.242Z,98.87
2023-04-02T00:40:28.910Z,98.86
2023-04-02T00:42:32.493Z,98.48
2023-04-02T00:44:43.139Z,97.97
2023-04-02T00:46:49.551Z,97.79
2023-04-02T00:48:58.731Z,97.79
2023-04-02T00:51:12.385Z,98.25
2023-04-02T00:53:25.040Z,97.56
2023-04-02T00:55:35.721Z,97.44
2023-04-02T00:57:44.917Z,96.89
2023-04-02T01:00:00.780Z,96.86
2023-04-02T01:02:26.480Z,97.16
2023-04-02T01:04:34.494Z,97.00
2023-04-02T01:06:39.779Z,96.52
2023-04-02T01:09:13.618Z,96.53
2023-04-02T01:11:36.562Z,96.66
2023-04-02T01:13:47.204Z,96.21
2023-04-02T01:15:58.454Z,95.87
2023-04-02T01:18:18.726Z,94.88
2023-04-02T01:20:40.050Z,95.55
2023-04-02T01:22:49.761Z,95.23
2023-04-02T01:24:58.103Z,95.40
2023-04-02T01:27:04.975Z,94.84
2023-04-02T01:29:13.969Z,95.24
2023-04-02T01:31:17.660Z,95.12
2023-04-02T01:33:23.989Z,94.85
2023-04-02T01:35:33.546Z,94.66
2023-04-02T01:37:44.819Z,94.68
2023-04-02T01:40:02.271Z,94.59
2023-04-02T01:42:11.630Z,94.47
2023-04-02T01:44:23.120Z,94.13
2023-04-02T01:46:29.190Z,93.91
2023-04-02T01:48:33.313Z,93.79
2023-04-02T01:50:39.572Z,93.76
2023-04-02T01:52:46.066Z,93.72
2023-04-02T01:54:52.843Z,93.79
2023-04-02T01:56:58.157Z,93.56
2023-04-02T01:59:02.701Z,93.01
2023-04-02T02:01:15.603Z,93.37
2023-04-02T02:03:21.478Z,92.62
2023-04-02T02:05:25.410Z,92.89
2023-04-02T02:07:31.663Z,92.66
2023-04-02T02:09:37.185Z,92.36
2023-04-02T02:11:40.695Z,92.35
2023-04-02T02:13:47.910Z,92.19
2023-04-02T02:15:57.831Z,92.33
2023-04-02T02:18:06.558Z,92.33
2023-04-02T02:20:12.510Z,92.08
2023-04-02T02:22:22.987Z,92.10
2023-04-02T02:24:30.831Z,91.49
2023-04-02T02:26:36.938Z,91.94
2023-04-02T02:28:43.564Z,91.69
2023-04-02T02:30:50.623Z,92.00
2023-04-02T02:33:00.837Z,91.63
2023-04-02T02:35:13.956Z,91.45
2023-04-02T02:37:25.181Z,91.57
2023-04-02T02:39:36.155Z,90.96
2023-04-02T02:41:43.767Z,91.01
2023-04-02T02:43:54.278Z,91.11
2023-04-02T02:45:59.476Z,91.09
2023-04-02T02:48:04.863Z,90.69
2023-04-02T02:50:18.316Z,90.84
2023-04-02T02:52:25.076Z,90.54
2023-04-02T02:54:37.916Z,90.25
2023-04-02T02:56:48.821Z,90.80
2023-04-02T02:58:53.843Z,90.29
2023-04-02T03:01:01.825Z,90.14
2023-04-02T03:03:09.005Z,90.13
2023-04-02T03:05:20.531Z,90.11
2023-04-02T03:07:27.987Z,90.29
2023-04-02T03:09:41.607Z,90.29
2023-04-02T03:11:50.565Z,90.00
2023-04-02T03:14:04.647Z,89.92
2023-04-02T03:16:13.836Z,90.15
2023-04-02T03:18:27.078Z,90.11
2023-04-02T03:20:39.080Z,89.89
2023-04-02T03:22:47.398Z,90.16
2023-04-02T03:24:57.809Z,90.29
2023-04-02T03:27:06.569Z,90.56
2023-04-02T03:29:17.381Z,90.51
2023-04-02T03:31:27.527Z,89.91
2023-04-02T03:33:35.795Z,90.09
2023-04-02T03:35:49.124Z,90.49
2023-04-02T03:37:57.216Z,90.29
2023-04-02T03:40:07.164Z,90.41
2023-04-02T03:42:16.830Z,90.55
2023-04-02T03:44:26.996Z,90.70
2023-04-02T03:46:37.971Z,90.39
2023-04-02T03:48:45.968Z,90.14
2023-04-02T03:50:57.338Z,90.17
2023-04-02T03:53:03.239Z,90.41
2023-04-02T03:55:15.753Z,90.30
2023-04-02T03:57:30.332Z,89.76
2023-04-02T03:59:39.585Z,89.89
2023-04-02T04:01:49.240Z,90.19
2023-04-02T04:03:55.236Z,90.08
2023-04-02T04:06:06.926Z,89.98
2023-04-02T04:08:17.578Z,90.00
2023-04-02T04:10:25.443Z,90.08
2023-04-02T04:12:34.705Z,89.73
2023-04-02T04:14:47.125Z,89.65
2023-04-02T04:16:59.870Z,89.92
2023-04-02T04:19:08.113Z,90.02
2023-04-02T04:21:29.867Z,89.95
2023-04-02T04:23:38.925Z,89.65
2023-04-02T04:25:45.338Z,89.67
2023-04-02T04:28:05.617Z,89.21
2023-04-02T04:30:22.971Z,89.45
2023-04-02T04:32:33.682Z,89.61
2023-04-02T04:34:53.370Z,89.39
2023-04-02T04:37:07.828Z,89.45
2023-04-02T04:39:23.420Z,88.78
2023-04-02T04:41:33.205Z,89.07
2023-04-02T04:43:46.945Z,89.34
2023-04-02T04:45:55.396Z,89.29
2023-04-02T04:48:04.765Z,89.28
2023-04-02T04:50:14.718Z,88.91
2023-04-02T04:52:22.588Z,89.12
2023-04-02T04:54:29.407Z,88.73
2023-04-02T04:56:34.727Z,88.75
2023-04-02T04:58:51.266Z,89.06
2023-04-02T05:01:01.544Z,88.75
2023-04-02T05:03:17.106Z,88.57
2023-04-02T05:05:25.261Z,89.03
2023-04-02T05:07:33.582Z,88.19
2023-04-02T05:09:40.814Z,88.76
2023-04-02T05:11:48.973Z,88.73
2023-04-02T05:13:56.770Z,88.83
2023-04-02T05:16:12.592Z,88.66
2023-04-02T05:18:26.354Z,88.66
2023-04-02T05:20:36.252Z,88.07
2023-04-02T05:22:48.149Z,88.16
2023-04-02T05:25:14.621Z,88.23
2023-04-02T05:27:26.264Z,88.87
2023-04-02T05:29:35.640Z,88.63
2023-04-02T05:31:43.657Z,88.51
2023-04-02T05:33:49.852Z,88.44
2023-04-02T05:36:00.132Z,88.43
2023-04-02T05:38:06.820Z,88.56
2023-04-02T05:40:15.954Z,88.76
2023-04-02T05:42:24.858Z,88.45
2023-04-02T05:44:38.596Z,90.49
2023-04-02T05:46:48.580Z,93.15
2023-04-02T05:48:57.735Z,94.13
2023-04-02T05:51:04.820Z,91.32
2023-04-02T05:53:16.897Z,90.48
2023-04-02T05:55:36.281Z,89.72
2023-04-02T05:57:56.600Z,87.64
2023-04-02T06:00:17.458Z,87.62
2023-04-02T06:02:30.708Z,86.43
2023-04-02T06:04:43.717Z,86.31
2023-04-02T06:06:58.066Z,86.16
2023-04-02T06:09:12.942Z,86.15
2023-04-02T06:11:23.708Z,86.19
2023-04-02T06:13:28.874Z,86.28
2023-04-02T06:15:35.799Z,86.76
2023-04-02T06:17:49.015Z,86.70
2023-04-02T06:19:54.042Z,86.80
2023-04-02T06:22:09.963Z,86.87
2023-04-02T06:24:19.299Z,86.68
2023-04-02T06:26:27.544Z,86.70
2023-04-02T06:28:39.059Z,86.76
2023-04-02T06:30:43.186Z,86.58
2023-04-02T06:32:47.632Z,86.91
2023-04-02T06:34:52.803Z,86.72
2023-04-02T06:36:58.569Z,86.91
2023-04-02T06:39:06.977Z,86.84
2023-04-02T06:41:20.554Z,86.91
2023-04-02T06:43:39.504Z,86.73
2023-04-02T06:46:16.422Z,86.78
2023-04-02T06:48:36.319Z,87.04
2023-04-02T06:50:46.927Z,86.90
2023-04-02T06:52:53.562Z,86.74
2023-04-02T06:54:57.869Z,86.75
2023-04-02T06:57:02.934Z,86.80
2023-04-02T06:59:13.731Z,86.74
2023-04-02T07:01:20.668Z,86.81
2023-04-02T07:03:27.159Z,86.98
2023-04-02T07:05:32.777Z,86.77
2023-04-02T07:07:36.322Z,86.46
2023-04-02T07:09:42.351Z,86.19
2023-04-02T07:11:47.200Z,85.92
2023-04-02T07:13:52.428Z,85.98
2023-04-02T07:15:56.867Z,86.22
2023-04-02T07:18:02.066Z,86.32
2023-04-02T07:20:05.839Z,86.41
2023-04-02T07:22:09.235Z,86.30
2023-04-02T07:24:16.770Z,86.39
2023-04-02T07:26:23.246Z,85.69
2023-04-02T07:28:27.285Z,85.77
2023-04-02T07:30:32.005Z,85.47
2023-04-02T07:32:35.879Z,85.67
2023-04-02T07:34:39.271Z,85.89
2023-04-02T07:36:42.618Z,85.63
2023-04-02T07:38:46.306Z,85.32
2023-04-02T07:40:49.594Z,85.64
2023-04-02T07:42:52.899Z,85.69
2023-04-02T07:44:56.200Z,85.69
2023-04-02T07:47:01.193Z,85.65
2023-04-02T07:49:04.837Z,85.49
2023-04-02T07:51:16.637Z,85.28
2023-04-02T07:53:29.609Z,85.18
2023-04-02T07:55:33.189Z,85.35
2023-04-02T07:57:42.622Z,84.76
2023-04-02T07:59:47.981Z,84.88
2023-04-02T08:01:53.563Z,84.92
2023-04-02T08:03:58.940Z,84.42
2023-04-02T08:06:02.307Z,84.56
2023-04-02T08:08:06.012Z,84.72
2023-04-02T08:10:11.493Z,84.55
2023-04-02T08:12:15.569Z,84.18
2023-04-02T08:14:18.896Z,84.27
2023-04-02T08:16:23.424Z,84.27
2023-04-02T08:18:27.007Z,84.43
2023-04-02T08:20:31.688Z,84.23
2023-04-02T08:22:35.082Z,84.34
2023-04-02T08:24:38.535Z,83.93
2023-04-02T08:26:43.892Z,83.83
2023-04-02T08:28:48.462Z,83.85
2023-04-02T08:30:52.649Z,83.18
2023-04-02T08:32:56.139Z,83.56
2023-04-02T08:34:59.452Z,83.33
2023-04-02T08:37:04.161Z,83.27
2023-04-02T08:39:10.982Z,83.46
2023-04-02T08:41:23.207Z,83.06
2023-04-02T08:43:38.904Z,82.87
2023-04-02T08:45:55.080Z,82.84
2023-04-02T08:48:00.008Z,82.70
2023-04-02T08:50:11.295Z,82.23
2023-04-02T08:52:23.297Z,82.39
2023-04-02T08:54:29.139Z,82.79
2023-04-02T08:56:38.051Z,82.97
2023-04-02T08:58:43.041Z,82.85
2023-04-02T09:00:50.274Z,82.57
2023-04-02T09:02:58.588Z,82.15
2023-04-02T09:05:06.017Z,81.93
2023-04-02T09:07:14.169Z,82.20
2023-04-02T09:09:19.824Z,82.17
2023-04-02T09:11:25.917Z,82.63
2023-04-02T09:13:31.103Z,82.83
2023-04-02T09:15:36.840Z,82.26
2023-04-02T09:17:53.097Z,82.28
2023-04-02T09:20:01.738Z,81.98
2023-04-02T09:22:13.121Z,81.98
2023-04-02T09:24:18.081Z,81.34
2023-04-02T09:26:23.752Z,81.17
2023-04-02T09:28:27.201Z,80.81
2023-04-02T09:30:42.683Z,80.79
2023-04-02T09:32:50.571Z,80.53
2023-04-02T09:35:14.983Z,80.25
2023-04-02T09:37:26.357Z,80.38
2023-04-02T09:39:31.219Z,80.30
2023-04-02T09:41:37.227Z,80.33
2023-04-02T09:43:40.997Z,80.07
2023-04-02T09:45:45.874Z,79.96
2023-04-02T09:47:50.220Z,79.76
2023-04-02T09:49:53.763Z,79.71
2023-04-02T09:52:30.914Z,79.36
2023-04-02T09:54:41.377Z,79.83
2023-04-02T09:57:01.592Z,79.77
2023-04-02T09:59:06.986Z,79.53
2023-04-02T10:01:30.375Z,79.64
2023-04-02T10:03:34.403Z,79.52
2023-04-02T10:05:40.990Z,79.43
2023-04-02T10:07:48.888Z,79.52
2023-04-02T10:10:01.164Z,79.45
2023-04-02T10:12:08.606Z,79.71
2023-04-02T10:14:18.994Z,79.26
2023-04-02T10:16:27.453Z,78.88
2023-04-02T10:18:47.455Z,78.72
2023-04-02T10:20:53.654Z,78.43
2023-04-02T10:22:56.971Z,77.77
2023-04-02T10:25:02.389Z,77.98
2023-04-02T10:27:22.488Z,78.22
2023-04-02T10:29:48.842Z,78.50
2023-04-02T10:32:00.443Z,78.26
2023-04-02T10:34:12.024Z,78.16
2023-04-02T10:36:30.619Z,78.13
2023-04-02T10:38:43.170Z,77.73
2023-04-02T10:40:54.847Z,77.32
2023-04-02T10:43:21.379Z,77.43
2023-04-02T10:45:37.333Z,77.37
2023-04-02T10:47:47.492Z,77.26
2023-04-02T10:50:01.501Z,77.57
2023-04-02T10:52:10.116Z,77.36
2023-04-02T10:54:40.762Z,78.08
2023-04-02T10:56:50.947Z,77.95
2023-04-02T10:59:00.017Z,77.28
2023-04-02T11:01:08.344Z,77.07
2023-04-02T11:03:18.989Z,76.73
2023-04-02T11:05:30.886Z,76.52
2023-04-02T11:07:52.463Z,76.34
2023-04-02T11:09:58.437Z,76.50
2023-04-02T11:12:04.677Z,76.51
2023-04-02T11:14:15.825Z,76.38
2023-04-02T11:16:19.556Z,76.52
2023-04-02T11:18:25.553Z,75.83
2023-04-02T11:20:58.140Z,75.75
2023-04-02T11:23:12.387Z,75.52
2023-04-02T11:25:23.037Z,75.36
2023-04-02T11:27:30.618Z,75.58
2023-04-02T11:29:36.398Z,75.11
2023-04-02T11:31:39.930Z,74.59
2023-04-02T11:33:46.110Z,74.73
2023-04-02T11:35:50.288Z,74.58
2023-04-02T11:37:54.425Z,74.15
2023-04-02T11:39:59.352Z,74.28
2023-04-02T11:42:06.140Z,74.50
2023-04-02T11:44:24.145Z,74.12
2023-04-02T11:46:40.231Z,73.80
2023-04-02T11:48:44.513Z,74.21
2023-04-02T11:50:47.935Z,74.31
2023-04-02T11:52:54.145Z,73.66
2023-04-02T11:55:03.724Z,73.69
2023-04-02T11:57:21.625Z,73.28
2023-04-02T11:59:37.014Z,72.97
2023-04-02T12:01:55.223Z,72.59
2023-04-02T12:04:31.654Z,72.94
2023-04-02T12:06:49.572Z,72.75
2023-04-02T12:09:08.535Z,73.13
2023-04-02T12:11:12.338Z,73.03
2023-04-02T12:13:19.653Z,73.24
2023-04-02T12:15:40.243Z,72.82
2023-04-02T12:17:44.898Z,72.31
2023-04-02T12:19:51.318Z,73.21
2023-04-02T12:21:54.843Z,72.47
2023-04-02T12:24:00.385Z,72.83
2023-04-02T12:26:06.492Z,72.68
2023-04-02T12:28:19.592Z,76.54
2023-04-02T12:30:24.428Z,78.01
2023-04-02T12:32:31.688Z,76.37
2023-04-02T12:34:35.054Z,75.52
2023-04-02T12:36:38.538Z,74.77
2023-04-02T12:38:46.465Z,74.25
2023-04-02T12:40:53.900Z,73.38
2023-04-02T12:42:57.229Z,73.09
2023-04-02T12:45:01.332Z,73.08
2023-04-02T12:47:06.143Z,72.90
2023-04-02T12:49:21.622Z,71.77
2023-04-02T12:51:27.301Z,71.68
2023-04-02T12:53:36.234Z,72.12
2023-04-02T12:55:39.658Z,71.96
2023-04-02T12:57:45.932Z,71.36
2023-04-02T12:59:49.695Z,71.67
2023-04-02T13:01:57.562Z,71.18
2023-04-02T13:04:03.276Z,70.78
2023-04-02T13:06:22.811Z,70.79
2023-04-02T13:08:28.953Z,70.53
2023-04-02T13:10:32.889Z,70.15
2023-04-02T13:12:39.096Z,69.79
2023-04-02T13:14:42.672Z,69.99
2023-04-02T13:16:46.243Z,69.81
2023-04-02T13:18:51.033Z,69.57
2023-04-02T13:20:58.206Z,69.64
2023-04-02T13:23:23.603Z,69.44
2023-04-02T13:25:30.899Z,69.23
2023-04-02T13:27:34.250Z,69.14
2023-04-02T13:29:38.068Z,68.71
2023-04-02T13:31:41.511Z,68.75
2023-04-02T13:33:44.994Z,68.09
2023-04-02T13:35:48.513Z,68.54
2023-04-02T13:37:52.074Z,68.66
2023-04-02T13:39:56.861Z,67.78
2023-04-02T13:42:02.669Z,68.10
2023-04-02T13:44:06.575Z,67.75
2023-04-02T13:46:17.558Z,68.19
2023-04-02T13:48:24.579Z,68.04
2023-04-02T13:50:29.536Z,67.30
2023-04-02T13:52:33.012Z,67.41
2023-04-02T13:54:44.522Z,67.58
2023-04-02T13:56:49.613Z,67.45
2023-04-02T13:58:53.908Z,67.34
2023-04-02T14:00:57.380Z,66.72
2023-04-02T14:03:05.646Z,66.52
2023-04-02T14:05:19.217Z,66.63
2023-04-02T14:07:40.517Z,67.22
2023-04-02T14:09:57.809Z,67.15
2023-04-02T14:12:10.312Z,67.06
2023-04-02T14:14:46.638Z,67.14
2023-04-02T14:17:02.146Z,66.98
2023-04-02T14:19:21.039Z,67.47
2023-04-02T14:21:32.287Z,67.61
2023-04-02T14:24:02.909Z,67.05
2023-04-02T14:26:16.668Z,67.00
2023-04-02T14:28:30.055Z,66.30
2023-04-02T14:30:44.040Z,66.29
2023-04-02T14:32:53.715Z,66.66
2023-04-02T14:35:07.754Z,66.67
2023-04-02T14:37:19.119Z,66.21
2023-04-02T14:39:34.581Z,66.63
2023-04-02T14:41:48.266Z,66.55
2023-04-02T14:43:57.466Z,66.01
2023-04-02T14:46:02.904Z,66.13
2023-04-02T14:48:16.069Z,65.42
2023-04-02T14:50:27.867Z,65.94
2023-04-02T14:52:35.081Z,65.66
2023-04-02T14:54:50.101Z,65.95
2023-04-02T14:56:56.444Z,65.89
2023-04-02T14:59:15.546Z,65.71
2023-04-02T15:01:26.404Z,65.15
2023-04-02T15:03:34.093Z,65.21
2023-04-02T15:05:43.584Z,64.83
2023-04-02T15:07:51.841Z,65.30
2023-04-02T15:10:04.233Z,64.92
2023-04-02T15:12:13.622Z,64.72
2023-04-02T15:14:22.240Z,64.42
2023-04-02T15:16:27.626Z,63.60
2023-04-02T15:18:31.192Z,63.88
2023-04-02T15:20:41.147Z,63.81
2023-04-02T15:22:56.701Z,63.31
2023-04-02T15:25:14.987Z,63.48
2023-04-02T15:27:28.195Z,63.25
2023-04-02T15:29:45.351Z,62.48
2023-04-02T15:31:49.104Z,62.50
2023-04-02T15:34:00.949Z,62.63
2023-04-02T15:36:22.915Z,62.13
2023-04-02T15:38:32.864Z,62.91
2023-04-02T15:40:54.610Z,60.99
2023-04-02T15:43:05.935Z,60.22
2023-04-02T15:45:23.990Z,58.46
2023-04-02T15:47:37.585Z,57.24
2023-04-02T15:49:44.018Z,55.61
2023-04-02T15:52:06.519Z,55.76
2023-04-02T15:54:25.931Z,55.81
2023-04-02T15:56:39.865Z,56.56
2023-04-02T15:59:11.383Z,56.52
2023-04-02T16:01:29.102Z,57.07
2023-04-02T16:03:49.418Z,57.61
2023-04-02T16:06:05.231Z,57.20
2023-04-02T16:08:30.997Z,57.44
2023-04-02T16:10:41.887Z,56.86
2023-04-02T16:12:47.630Z,56.62
2023-04-02T16:14:51.016Z,56.66
2023-04-02T16:17:02.154Z,57.18
2023-04-02T16:19:16.721Z,57.03
2023-04-02T16:21:23.015Z,57.40
2023-04-02T16:23:32.575Z,57.85
2023-04-02T16:25:43.295Z,56.62
2023-04-02T16:27:53.442Z,55.86
2023-04-02T16:30:06.797Z,55.33
2023-04-02T16:32:21.156Z,54.59
2023-04-02T16:34:37.151Z,55.21
2023-04-02T16:36:50.589Z,54.55
2023-04-02T16:39:00.514Z,54.19
2023-04-02T16:41:14.942Z,54.28
2023-04-02T16:43:25.475Z,53.77
2023-04-02T16:45:36.316Z,53.82
2023-04-02T16:47:56.693Z,53.31
2023-04-02T16:50:09.024Z,53.29
2023-04-02T16:52:29.250Z,52.90
2023-04-02T16:54:43.681Z,53.87
2023-04-02T16:56:59.158Z,54.16
2023-04-02T16:59:12.725Z,54.44
2023-04-02T17:01:23.023Z,55.12
2023-04-02T17:03:48.778Z,55.35
2023-04-02T17:05:59.329Z,54.50
2023-04-02T17:08:17.018Z,54.35
2023-04-02T17:10:31.374Z,54.30
2023-04-02T17:12:42.256Z,54.86
2023-04-02T17:14:52.454Z,54.89
2023-04-02T17:16:59.941Z,54.94
2023-04-02T17:19:10.827Z,54.57
2023-04-02T17:21:18.541Z,54.76
2023-04-02T17:23:22.034Z,55.13
2023-04-02T17:25:29.164Z,55.65
2023-04-02T17:27:36.858Z,55.90
2023-04-02T17:29:43.136Z,55.94
2023-04-02T17:31:47.384Z,55.93
2023-04-02T17:33:51.378Z,55.59
2023-04-02T17:36:08.922Z,55.96
2023-04-02T17:38:22.402Z,55.93
2023-04-02T17:40:31.715Z,55.54
2023-04-02T17:42:48.253Z,55.03
2023-04-02T17:45:07.668Z,55.36
2023-04-02T17:47:20.425Z,55.66
2023-04-02T17:49:32.794Z,55.71
2023-04-02T17:51:43.234Z,55.76
2023-04-02T17:53:59.924Z,55.75
2023-04-02T17:56:17.380Z,55.62
2023-04-02T17:58:41.418Z,55.73
2023-04-02T18:00:58.832Z,55.55
2023-04-02T18:03:20.621Z,55.88
2023-04-02T18:05:30.787Z,55.84
2023-04-02T18:07:43.851Z,56.31
2023-04-02T18:09:51.619Z,56.32
2023-04-02T18:12:08.253Z,56.16
2023-04-02T18:14:28.701Z,56.08
2023-04-02T18:16:49.080Z,56.26
2023-04-02T18:19:14.146Z,56.51
2023-04-02T18:21:25.988Z,56.07
2023-04-02T18:23:45.238Z,56.64
2023-04-02T18:25:56.567Z,56.33
2023-04-02T18:28:13.182Z,56.01
2023-04-02T18:30:23.000Z,56.16
2023-04-02T18:32:47.122Z,56.48
2023-04-02T18:35:03.788Z,55.95
2023-04-02T18:37:23.808Z,56.65
2023-04-02T18:39:37.851Z,56.85
2023-04-02T18:41:51.957Z,56.67
2023-04-02T18:44:08.553Z,56.62
2023-04-02T18:46:23.234Z,56.54
2023-04-02T18:48:41.901Z,56.65
2023-04-02T18:50:46.913Z,56.29
2023-04-02T18:52:51.724Z,57.07
2023-04-02T18:55:05.573Z,56.84
2023-04-02T18:57:14.209Z,56.70
2023-04-02T18:59:31.447Z,56.66
2023-04-02T19:03:53.601Z,57.14
2023-04-02T19:06:02.979Z,56.98
2023-04-02T19:08:12.481Z,56.87
2023-04-02T19:10:28.189Z,57.38
2023-04-02T19:12:33.954Z,57.47
2023-04-02T19:14:37.398Z,57.22
2023-04-02T19:16:59.028Z,57.22
2023-04-02T19:19:12.876Z,57.64
2023-04-02T19:21:21.586Z,57.46
2023-04-02T19:23:43.713Z,57.39
2023-04-02T19:26:01.224Z,57.50
2023-04-02T19:28:13.137Z,57.58
2023-04-02T19:30:35.049Z,57.44
2023-04-02T19:32:49.118Z,57.13
2023-04-02T19:35:02.900Z,57.91
2023-04-02T19:37:15.115Z,57.38
2023-04-02T19:39:42.095Z,57.11
2023-04-02T19:41:52.346Z,57.41
2023-04-02T19:43:56.604Z,57.48
2023-04-02T19:46:03.004Z,57.67
2023-04-02T19:48:17.748Z,57.65
2023-04-02T19:50:21.219Z,57.57
2023-04-02T19:52:24.523Z,57.43
2023-04-02T19:54:28.082Z,57.87
2023-04-02T19:56:31.805Z,57.74
2023-04-02T19:58:37.422Z,57.54
2023-04-02T20:00:40.849Z,57.86
2023-04-02T20:02:44.351Z,57.60
2023-04-02T20:04:47.761Z,58.00
2023-04-02T20:06:51.653Z,57.95
2023-04-02T20:08:55.200Z,57.74
2023-04-02T20:11:00.038Z,57.89
2023-04-02T20:13:03.488Z,57.90
2023-04-02T20:15:09.662Z,57.96
2023-04-02T20:17:12.992Z,57.57
2023-04-02T20:19:16.397Z,58.22
2023-04-02T20:21:21.354Z,58.31
2023-04-02T20:23:24.744Z,58.50
2023-04-02T20:25:28.141Z,58.64
2023-04-02T20:27:31.977Z,58.47
2023-04-02T20:29:35.460Z,58.55
2023-04-02T20:31:40.380Z,58.80
2023-04-02T20:33:44.348Z,58.97
2023-04-02T20:35:48.727Z,59.34
2023-04-02T20:37:52.135Z,59.27
2023-04-02T20:39:56.576Z,59.28
2023-04-02T20:42:02.752Z,59.29
2023-04-02T20:44:06.217Z,59.40
2023-04-02T20:46:12.249Z,59.35
2023-04-02T20:48:17.356Z,59.29
2023-04-02T20:50:20.930Z,59.13
2023-04-02T20:52:24.303Z,59.68
2023-04-02T20:54:27.758Z,59.86
2023-04-02T20:56:31.050Z,59.54
2023-04-02T20:58:35.263Z,59.71
2023-04-02T21:00:38.890Z,59.38
2023-04-02T21:02:42.332Z,59.66
2023-04-02T21:04:47.150Z,59.74
2023-04-02T21:06:56.734Z,59.94
2023-04-02T21:09:01.448Z,59.78
2023-04-02T21:11:06.522Z,59.88
2023-04-02T21:13:09.904Z,59.97
2023-04-02T21:15:13.526Z,60.25
2023-04-02T21:17:16.827Z,60.25
2023-04-02T21:19:21.483Z,60.34
2023-04-02T21:21:26.862Z,60.48
2023-04-02T21:23:30.804Z,60.49
2023-04-02T21:25:34.491Z,60.46
2023-04-02T21:27:37.957Z,60.63
2023-04-02T21:29:41.298Z,60.71
2023-04-02T21:31:45.590Z,60.69
2023-04-02T21:33:50.681Z,60.98
2023-04-02T21:35:54.196Z,61.00
2023-04-02T21:37:59.016Z,61.17
2023-04-02T21:40:02.489Z,60.99
2023-04-02T21:42:05.850Z,61.27
2023-04-02T21:44:11.206Z,61.44
2023-04-02T21:46:14.521Z,61.69
2023-04-02T21:48:17.997Z,61.84
2023-04-02T21:50:21.295Z,62.18
2023-04-02T21:52:24.797Z,62.39
2023-04-02T21:54:29.522Z,62.56
2023-04-02T21:56:35.545Z,62.93
2023-04-02T21:58:38.871Z,63.05
2023-04-02T22:00:42.561Z,63.10
2023-04-02T22:02:45.982Z,63.06
2023-04-02T22:04:49.466Z,63.32
2023-04-02T22:06:53.912Z,63.65
2023-04-02T22:08:59.615Z,63.67
2023-04-02T22:11:08.750Z,63.87
2023-04-02T22:13:12.196Z,63.96
2023-04-02T22:15:15.673Z,64.08
2023-04-02T22:17:18.952Z,64.08
2023-04-02T22:19:22.705Z,64.02
2023-04-02T22:21:26.878Z,63.98
2023-04-02T22:23:31.202Z,64.05
2023-04-02T22:25:34.655Z,64.28
2023-04-02T22:27:39.507Z,64.36
2023-04-02T22:29:42.789Z,64.97
2023-04-02T22:31:47.387Z,65.26
2023-04-02T22:33:51.564Z,64.78
2023-04-02T22:35:55.059Z,64.99
2023-04-02T22:37:58.792Z,65.10
2023-04-02T22:40:02.089Z,65.42
2023-04-02T22:42:05.462Z,65.04
2023-04-02T22:44:14.455Z,65.44
2023-04-02T22:46:19.277Z,65.25
2023-04-02T22:48:22.910Z,65.40
2023-04-02T22:50:26.403Z,65.67
2023-04-02T22:52:29.782Z,65.49
2023-04-02T22:54:33.128Z,65.47
2023-04-02T22:56:37.424Z,65.48
2023-04-02T22:58:41.445Z,66.10
2023-04-02T23:00:46.772Z,66.28
2023-04-02T23:02:50.337Z,65.97
2023-04-02T23:04:53.958Z,66.82
2023-04-02T23:06:57.298Z,67.11
2023-04-02T23:09:00.598Z,67.95
2023-04-02T23:11:06.589Z,68.14
2023-04-02T23:13:10.648Z,67.92
2023-04-02T23:15:14.326Z,68.53
2023-04-02T23:17:19.019Z,68.62
2023-04-02T23:19:22.346Z,68.90
2023-04-02T23:21:26.150Z,68.41
2023-04-02T23:23:31.370Z,68.88
2023-04-02T23:25:38.127Z,69.07
2023-04-02T23:27:41.775Z,68.96
2023-04-02T23:29:45.543Z,69.55
2023-04-02T23:31:48.965Z,68.79
2023-04-02T23:33:54.056Z,69.10
2023-04-02T23:35:58.318Z,68.87
2023-04-02T23:38:01.702Z,68.63
2023-04-02T23:40:06.498Z,68.87
2023-04-02T23:42:10.848Z,68.53
2023-04-02T23:44:14.252Z,69.06
2023-04-02T23:46:17.785Z,68.43
2023-04-02T23:48:21.314Z,68.11
2023-04-02T23:50:26.356Z,68.36
2023-04-02T23:52:29.660Z,68.46
2023-04-02T23:54:32.934Z,68.54
2023-04-02T23:56:36.655Z,68.58
2023-04-02T23:58:40.068Z,68.74
